sensor_id;sensor_type;location;lat;lon;timestamp;P1;durP1;ratioP1;P2;durP2;ratioP2
19671;SDS011;9983;51.114;13.788;2024-01-15T00:00:28;5.80;;;3.78;;
19671;SDS011;9983;51.114;13.788;2024-01-15T00:05:28;9.23;;;4.90;;
19671;SDS011;9983;51.114;13.788;2024-01-15T00:10:28;5.85;;;3.58;;
19671;SDS011;9983;51.114;13.788;2024-01-15T00:15:28;7.13;;;3.95;;
19671;SDS011;9983;51.114;13.788;2024-01-15T00:20:30;7.85;;;4.60;;
19671;SDS011;9983;51.114;13.788;2024-01-15T00:25:30;8.48;;;5.18;;
19671;SDS011;9983;51.114;13.788;2024-01-15T00:30:30;7.50;;;5.10;;
19671;SDS011;9983;51.114;13.788;2024-01-15T00:35:30;9.02;;;5.35;;
19671;SDS011;9983;51.114;13.788;2024-01-15T00:40:31;9.50;;;4.30;;
19671;SDS011;9983;51.114;13.788;2024-01-15T00:45:31;7.57;;;5.07;;
19671;SDS011;9983;51.114;13.788;2024-01-15T00:50:31;8.30;;;4.88;;
19671;SDS011;9983;51.114;13.788;2024-01-15T00:55:31;5.75;;;3.50;;
19671;SDS011;9983;51.114;13.788;2024-01-15T01:00:32;3.72;;;2.50;;
19671;SDS011;9983;51.114;13.788;2024-01-15T01:05:33;8.05;;;3.88;;
19671;SDS011;9983;51.114;13.788;2024-01-15T01:10:34;9.63;;;5.78;;
19671;SDS011;9983;51.114;13.788;2024-01-15T01:15:34;8.50;;;5.28;;
19671;SDS011;9983;51.114;13.788;2024-01-15T01:20:34;9.30;;;5.82;;
19671;SDS011;9983;51.114;13.788;2024-01-15T01:25:34;7.05;;;4.82;;
19671;SDS011;9983;51.114;13.788;2024-01-15T01:30:35;8.35;;;4.75;;
19671;SDS011;9983;51.114;13.788;2024-01-15T01:35:35;8.25;;;4.82;;
19671;SDS011;9983;51.114;13.788;2024-01-15T01:40:36;8.52;;;5.63;;
19671;SDS011;9983;51.114;13.788;2024-01-15T01:45:36;8.93;;;5.55;;
19671;SDS011;9983;51.114;13.788;2024-01-15T01:50:36;8.98;;;5.13;;
19671;SDS011;9983;51.114;13.788;2024-01-15T01:55:38;6.85;;;4.32;;
19671;SDS011;9983;51.114;13.788;2024-01-15T02:00:39;9.32;;;5.95;;
19671;SDS011;9983;51.114;13.788;2024-01-15T02:05:39;8.38;;;4.15;;
19671;SDS011;9983;51.114;13.788;2024-01-15T02:10:40;9.93;;;5.80;;
19671;SDS011;9983;51.114;13.788;2024-01-15T02:15:40;6.72;;;4.05;;
19671;SDS011;9983;51.114;13.788;2024-01-15T02:20:41;9.48;;;5.50;;
19671;SDS011;9983;51.114;13.788;2024-01-15T02:25:45;7.10;;;4.28;;
19671;SDS011;9983;51.114;13.788;2024-01-15T02:30:46;5.22;;;3.38;;
19671;SDS011;9983;51.114;13.788;2024-01-15T02:35:47;6.75;;;4.25;;
19671;SDS011;9983;51.114;13.788;2024-01-15T02:40:50;8.18;;;4.65;;
19671;SDS011;9983;51.114;13.788;2024-01-15T02:45:50;11.07;;;6.40;;
19671;SDS011;9983;51.114;13.788;2024-01-15T02:50:50;9.38;;;5.25;;
19671;SDS011;9983;51.114;13.788;2024-01-15T02:55:51;9.43;;;6.15;;
19671;SDS011;9983;51.114;13.788;2024-01-15T03:00:51;10.68;;;5.85;;
19671;SDS011;9983;51.114;13.788;2024-01-15T03:05:51;10.27;;;5.55;;
19671;SDS011;9983;51.114;13.788;2024-01-15T03:10:51;8.75;;;5.07;;
19671;SDS011;9983;51.114;13.788;2024-01-15T03:15:52;7.03;;;4.45;;
19671;SDS011;9983;51.114;13.788;2024-01-15T03:20:52;9.70;;;6.22;;
19671;SDS011;9983;51.114;13.788;2024-01-15T03:25:52;7.22;;;4.47;;
19671;SDS011;9983;51.114;13.788;2024-01-15T03:30:52;9.27;;;5.00;;
19671;SDS011;9983;51.114;13.788;2024-01-15T03:35:53;6.55;;;4.43;;
19671;SDS011;9983;51.114;13.788;2024-01-15T03:40:53;12.80;;;6.78;;
19671;SDS011;9983;51.114;13.788;2024-01-15T03:45:53;11.02;;;6.30;;
19671;SDS011;9983;51.114;13.788;2024-01-15T03:50:53;12.77;;;7.35;;
19671;SDS011;9983;51.114;13.788;2024-01-15T03:55:54;12.30;;;6.65;;
19671;SDS011;9983;51.114;13.788;2024-01-15T04:00:54;10.87;;;5.23;;
19671;SDS011;9983;51.114;13.788;2024-01-15T04:05:54;13.52;;;6.88;;
19671;SDS011;9983;51.114;13.788;2024-01-15T04:10:54;9.77;;;6.50;;
19671;SDS011;9983;51.114;13.788;2024-01-15T04:15:55;11.60;;;6.78;;
19671;SDS011;9983;51.114;13.788;2024-01-15T04:20:55;12.55;;;6.57;;
19671;SDS011;9983;51.114;13.788;2024-01-15T04:25:55;7.15;;;4.75;;
19671;SDS011;9983;51.114;13.788;2024-01-15T04:30:55;14.88;;;7.78;;
19671;SDS011;9983;51.114;13.788;2024-01-15T04:35:56;12.68;;;7.20;;
19671;SDS011;9983;51.114;13.788;2024-01-15T04:40:56;7.50;;;4.88;;
19671;SDS011;9983;51.114;13.788;2024-01-15T04:45:56;8.00;;;5.00;;
19671;SDS011;9983;51.114;13.788;2024-01-15T04:50:57;6.45;;;4.28;;
19671;SDS011;9983;51.114;13.788;2024-01-15T04:55:57;10.75;;;6.15;;
19671;SDS011;9983;51.114;13.788;2024-01-15T05:00:57;5.85;;;4.22;;
19671;SDS011;9983;51.114;13.788;2024-01-15T05:05:58;9.25;;;5.20;;
19671;SDS011;9983;51.114;13.788;2024-01-15T05:10:58;8.25;;;4.93;;
19671;SDS011;9983;51.114;13.788;2024-01-15T05:15:58;13.40;;;6.72;;
19671;SDS011;9983;51.114;13.788;2024-01-15T05:20:59;5.20;;;2.85;;
19671;SDS011;9983;51.114;13.788;2024-01-15T05:25:59;8.52;;;4.50;;
19671;SDS011;9983;51.114;13.788;2024-01-15T05:30:59;6.78;;;4.22;;
19671;SDS011;9983;51.114;13.788;2024-01-15T05:36:00;7.00;;;4.97;;
19671;SDS011;9983;51.114;13.788;2024-01-15T05:41:00;11.10;;;5.22;;
19671;SDS011;9983;51.114;13.788;2024-01-15T05:46:01;8.80;;;5.32;;
19671;SDS011;9983;51.114;13.788;2024-01-15T05:51:01;4.88;;;2.33;;
19671;SDS011;9983;51.114;13.788;2024-01-15T05:56:02;6.32;;;4.40;;
19671;SDS011;9983;51.114;13.788;2024-01-15T06:01:02;6.13;;;3.88;;
19671;SDS011;9983;51.114;13.788;2024-01-15T06:06:02;9.05;;;5.65;;
19671;SDS011;9983;51.114;13.788;2024-01-15T06:11:03;8.93;;;6.13;;
19671;SDS011;9983;51.114;13.788;2024-01-15T06:16:11;8.90;;;5.80;;
19671;SDS011;9983;51.114;13.788;2024-01-15T06:21:13;11.23;;;5.05;;
19671;SDS011;9983;51.114;13.788;2024-01-15T06:26:14;7.35;;;4.85;;
19671;SDS011;9983;51.114;13.788;2024-01-15T06:31:15;10.88;;;5.35;;
19671;SDS011;9983;51.114;13.788;2024-01-15T06:36:15;6.65;;;4.57;;
19671;SDS011;9983;51.114;13.788;2024-01-15T06:41:18;10.57;;;5.55;;
19671;SDS011;9983;51.114;13.788;2024-01-15T06:46:21;6.22;;;3.50;;
19671;SDS011;9983;51.114;13.788;2024-01-15T06:51:22;8.20;;;4.68;;
19671;SDS011;9983;51.114;13.788;2024-01-15T06:56:22;5.45;;;3.47;;
19671;SDS011;9983;51.114;13.788;2024-01-15T07:01:23;9.20;;;4.82;;
19671;SDS011;9983;51.114;13.788;2024-01-15T07:06:23;10.93;;;4.80;;
19671;SDS011;9983;51.114;13.788;2024-01-15T07:11:23;4.97;;;3.30;;
19671;SDS011;9983;51.114;13.788;2024-01-15T07:16:24;6.00;;;3.60;;
19671;SDS011;9983;51.114;13.788;2024-01-15T07:21:24;7.38;;;3.70;;
19671;SDS011;9983;51.114;13.788;2024-01-15T07:26:24;4.68;;;3.17;;
19671;SDS011;9983;51.114;13.788;2024-01-15T07:31:25;8.32;;;4.43;;
19671;SDS011;9983;51.114;13.788;2024-01-15T07:36:25;6.65;;;3.40;;
19671;SDS011;9983;51.114;13.788;2024-01-15T07:41:25;6.35;;;4.43;;
19671;SDS011;9983;51.114;13.788;2024-01-15T07:46:25;7.97;;;4.50;;
19671;SDS011;9983;51.114;13.788;2024-01-15T07:51:26;6.25;;;4.03;;
19671;SDS011;9983;51.114;13.788;2024-01-15T07:56:26;6.60;;;3.42;;
19671;SDS011;9983;51.114;13.788;2024-01-15T08:01:27;9.40;;;5.10;;
19671;SDS011;9983;51.114;13.788;2024-01-15T08:06:28;8.40;;;4.78;;
19671;SDS011;9983;51.114;13.788;2024-01-15T08:11:28;8.40;;;5.07;;
19671;SDS011;9983;51.114;13.788;2024-01-15T08:16:28;8.32;;;5.35;;
19671;SDS011;9983;51.114;13.788;2024-01-15T08:21:28;6.53;;;3.25;;
19671;SDS011;9983;51.114;13.788;2024-01-15T08:26:30;4.40;;;2.38;;
19671;SDS011;9983;51.114;13.788;2024-01-15T08:31:30;5.93;;;3.13;;
19671;SDS011;9983;51.114;13.788;2024-01-15T08:36:30;7.68;;;3.65;;
19671;SDS011;9983;51.114;13.788;2024-01-15T08:41:31;6.07;;;3.65;;
19671;SDS011;9983;51.114;13.788;2024-01-15T08:46:32;6.05;;;3.72;;
19671;SDS011;9983;51.114;13.788;2024-01-15T08:51:33;4.90;;;3.28;;
19671;SDS011;9983;51.114;13.788;2024-01-15T08:56:33;5.65;;;3.45;;
19671;SDS011;9983;51.114;13.788;2024-01-15T09:01:33;7.22;;;3.50;;
19671;SDS011;9983;51.114;13.788;2024-01-15T09:06:34;10.48;;;4.40;;
19671;SDS011;9983;51.114;13.788;2024-01-15T09:11:34;5.72;;;3.58;;
19671;SDS011;9983;51.114;13.788;2024-01-15T09:16:35;4.60;;;2.88;;
19671;SDS011;9983;51.114;13.788;2024-01-15T09:21:35;6.05;;;4.05;;
19671;SDS011;9983;51.114;13.788;2024-01-15T09:26:35;4.57;;;3.38;;
19671;SDS011;9983;51.114;13.788;2024-01-15T09:31:35;5.55;;;3.80;;
19671;SDS011;9983;51.114;13.788;2024-01-15T09:36:39;7.78;;;3.88;;
19671;SDS011;9983;51.114;13.788;2024-01-15T09:41:43;4.97;;;3.45;;
19671;SDS011;9983;51.114;13.788;2024-01-15T09:46:43;4.18;;;2.83;;
19671;SDS011;9983;51.114;13.788;2024-01-15T09:51:44;6.38;;;3.83;;
19671;SDS011;9983;51.114;13.788;2024-01-15T09:56:45;4.20;;;2.35;;
19671;SDS011;9983;51.114;13.788;2024-01-15T10:01:46;7.53;;;4.13;;
19671;SDS011;9983;51.114;13.788;2024-01-15T10:06:48;4.30;;;2.92;;
19671;SDS011;9983;51.114;13.788;2024-01-15T10:11:51;4.25;;;2.15;;
19671;SDS011;9983;51.114;13.788;2024-01-15T10:16:51;2.95;;;2.13;;
19671;SDS011;9983;51.114;13.788;2024-01-15T10:21:51;8.10;;;3.22;;
19671;SDS011;9983;51.114;13.788;2024-01-15T10:26:52;5.97;;;3.22;;
19671;SDS011;9983;51.114;13.788;2024-01-15T10:32:07;4.85;;;2.95;;
19671;SDS011;9983;51.114;13.788;2024-01-15T10:37:10;7.80;;;2.88;;
19671;SDS011;9983;51.114;13.788;2024-01-15T10:42:11;7.63;;;3.60;;
19671;SDS011;9983;51.114;13.788;2024-01-15T10:47:11;5.75;;;3.17;;
19671;SDS011;9983;51.114;13.788;2024-01-15T10:52:12;4.03;;;2.95;;
19671;SDS011;9983;51.114;13.788;2024-01-15T10:57:12;8.13;;;4.10;;
19671;SDS011;9983;51.114;13.788;2024-01-15T11:02:15;6.28;;;3.45;;
19671;SDS011;9983;51.114;13.788;2024-01-15T11:07:16;8.52;;;4.50;;
19671;SDS011;9983;51.114;13.788;2024-01-15T11:12:16;5.88;;;3.50;;
19671;SDS011;9983;51.114;13.788;2024-01-15T11:17:19;7.25;;;4.88;;
19671;SDS011;9983;51.114;13.788;2024-01-15T11:28:03;5.20;;;3.80;;
19671;SDS011;9983;51.114;13.788;2024-01-15T11:32:56;3.53;;;2.20;;
19671;SDS011;9983;51.114;13.788;2024-01-15T11:37:57;5.22;;;3.10;;
19671;SDS011;9983;51.114;13.788;2024-01-15T11:42:58;4.57;;;2.83;;
19671;SDS011;9983;51.114;13.788;2024-01-15T11:48:09;6.85;;;3.72;;
19671;SDS011;9983;51.114;13.788;2024-01-15T11:58:43;9.13;;;4.20;;
19671;SDS011;9983;51.114;13.788;2024-01-15T12:03:44;5.13;;;2.90;;
19671;SDS011;9983;51.114;13.788;2024-01-15T12:08:47;3.92;;;2.60;;
19671;SDS011;9983;51.114;13.788;2024-01-15T12:13:47;4.40;;;3.15;;
19671;SDS011;9983;51.114;13.788;2024-01-15T12:18:47;5.93;;;3.83;;
19671;SDS011;9983;51.114;13.788;2024-01-15T12:23:48;5.13;;;3.72;;
19671;SDS011;9983;51.114;13.788;2024-01-15T12:28:50;8.35;;;3.70;;
19671;SDS011;9983;51.114;13.788;2024-01-15T12:33:51;6.75;;;3.42;;
19671;SDS011;9983;51.114;13.788;2024-01-15T12:38:51;3.95;;;3.20;;
19671;SDS011;9983;51.114;13.788;2024-01-15T12:43:51;4.80;;;2.47;;
19671;SDS011;9983;51.114;13.788;2024-01-15T12:48:52;7.57;;;3.60;;
19671;SDS011;9983;51.114;13.788;2024-01-15T12:53:53;4.80;;;3.25;;
19671;SDS011;9983;51.114;13.788;2024-01-15T12:58:53;6.95;;;3.92;;
19671;SDS011;9983;51.114;13.788;2024-01-15T13:03:53;5.28;;;3.47;;
19671;SDS011;9983;51.114;13.788;2024-01-15T13:08:53;3.65;;;2.58;;
19671;SDS011;9983;51.114;13.788;2024-01-15T13:13:54;6.78;;;4.07;;
19671;SDS011;9983;51.114;13.788;2024-01-15T13:18:54;4.53;;;2.60;;
19671;SDS011;9983;51.114;13.788;2024-01-15T13:23:56;4.88;;;3.63;;
19671;SDS011;9983;51.114;13.788;2024-01-15T13:28:56;4.38;;;3.00;;
19671;SDS011;9983;51.114;13.788;2024-01-15T13:33:56;4.05;;;3.28;;
19671;SDS011;9983;51.114;13.788;2024-01-15T13:38:57;5.15;;;2.88;;
19671;SDS011;9983;51.114;13.788;2024-01-15T13:43:57;5.75;;;3.50;;
19671;SDS011;9983;51.114;13.788;2024-01-15T13:48:58;4.70;;;2.92;;
19671;SDS011;9983;51.114;13.788;2024-01-15T13:53:59;5.55;;;3.70;;
19671;SDS011;9983;51.114;13.788;2024-01-15T13:58:59;5.38;;;3.28;;
19671;SDS011;9983;51.114;13.788;2024-01-15T14:04:00;5.55;;;3.60;;
19671;SDS011;9983;51.114;13.788;2024-01-15T14:09:00;4.65;;;2.70;;
19671;SDS011;9983;51.114;13.788;2024-01-15T14:14:00;5.97;;;2.85;;
19671;SDS011;9983;51.114;13.788;2024-01-15T14:19:00;7.78;;;3.92;;
19671;SDS011;9983;51.114;13.788;2024-01-15T14:24:02;8.65;;;4.28;;
19671;SDS011;9983;51.114;13.788;2024-01-15T14:29:03;7.25;;;4.53;;
19671;SDS011;9983;51.114;13.788;2024-01-15T14:34:05;6.50;;;4.15;;
19671;SDS011;9983;51.114;13.788;2024-01-15T14:39:07;6.53;;;4.25;;
19671;SDS011;9983;51.114;13.788;2024-01-15T14:44:07;8.10;;;4.57;;
19671;SDS011;9983;51.114;13.788;2024-01-15T14:49:08;4.57;;;3.40;;
19671;SDS011;9983;51.114;13.788;2024-01-15T14:54:08;4.43;;;2.65;;
19671;SDS011;9983;51.114;13.788;2024-01-15T14:59:09;7.80;;;3.80;;
19671;SDS011;9983;51.114;13.788;2024-01-15T15:04:09;3.92;;;2.67;;
19671;SDS011;9983;51.114;13.788;2024-01-15T15:09:10;7.78;;;4.43;;
19671;SDS011;9983;51.114;13.788;2024-01-15T15:14:12;8.00;;;4.60;;
19671;SDS011;9983;51.114;13.788;2024-01-15T15:19:12;6.32;;;4.45;;
19671;SDS011;9983;51.114;13.788;2024-01-15T15:24:12;8.25;;;4.60;;
19671;SDS011;9983;51.114;13.788;2024-01-15T15:29:12;8.50;;;4.38;;
19671;SDS011;9983;51.114;13.788;2024-01-15T15:34:13;5.57;;;4.15;;
19671;SDS011;9983;51.114;13.788;2024-01-15T15:39:13;8.35;;;4.82;;
19671;SDS011;9983;51.114;13.788;2024-01-15T15:44:17;7.90;;;4.93;;
19671;SDS011;9983;51.114;13.788;2024-01-15T15:49:17;8.00;;;3.47;;
19671;SDS011;9983;51.114;13.788;2024-01-15T15:54:18;7.53;;;4.90;;
19671;SDS011;9983;51.114;13.788;2024-01-15T15:59:18;7.45;;;4.35;;
19671;SDS011;9983;51.114;13.788;2024-01-15T16:04:18;6.05;;;3.88;;
19671;SDS011;9983;51.114;13.788;2024-01-15T16:09:19;7.38;;;4.70;;
19671;SDS011;9983;51.114;13.788;2024-01-15T16:14:19;6.78;;;4.60;;
19671;SDS011;9983;51.114;13.788;2024-01-15T16:19:20;8.32;;;5.03;;
19671;SDS011;9983;51.114;13.788;2024-01-15T16:24:20;8.00;;;4.35;;
19671;SDS011;9983;51.114;13.788;2024-01-15T16:29:21;3.83;;;2.13;;
19671;SDS011;9983;51.114;13.788;2024-01-15T16:34:22;9.30;;;4.93;;
19671;SDS011;9983;51.114;13.788;2024-01-15T16:39:23;5.88;;;3.90;;
19671;SDS011;9983;51.114;13.788;2024-01-15T16:44:23;6.45;;;4.50;;
19671;SDS011;9983;51.114;13.788;2024-01-15T16:49:23;3.88;;;3.08;;
19671;SDS011;9983;51.114;13.788;2024-01-15T16:54:24;5.72;;;3.10;;
19671;SDS011;9983;51.114;13.788;2024-01-15T16:59:24;7.38;;;4.45;;
19671;SDS011;9983;51.114;13.788;2024-01-15T17:04:24;6.93;;;4.07;;
19671;SDS011;9983;51.114;13.788;2024-01-15T17:09:25;8.65;;;5.43;;
19671;SDS011;9983;51.114;13.788;2024-01-15T17:14:25;5.88;;;3.88;;
19671;SDS011;9983;51.114;13.788;2024-01-15T17:19:25;4.80;;;3.72;;
19671;SDS011;9983;51.114;13.788;2024-01-15T17:24:27;7.82;;;4.70;;
19671;SDS011;9983;51.114;13.788;2024-01-15T17:29:28;8.75;;;5.28;;
19671;SDS011;9983;51.114;13.788;2024-01-15T17:34:28;6.70;;;3.17;;
19671;SDS011;9983;51.114;13.788;2024-01-15T17:39:29;8.65;;;5.05;;
19671;SDS011;9983;51.114;13.788;2024-01-15T17:44:31;6.53;;;4.03;;
19671;SDS011;9983;51.114;13.788;2024-01-15T17:49:31;8.55;;;4.78;;
19671;SDS011;9983;51.114;13.788;2024-01-15T17:54:31;5.22;;;3.42;;
19671;SDS011;9983;51.114;13.788;2024-01-15T17:59:31;6.20;;;4.28;;
19671;SDS011;9983;51.114;13.788;2024-01-15T18:04:32;4.50;;;3.38;;
19671;SDS011;9983;51.114;13.788;2024-01-15T18:09:32;6.40;;;4.18;;
19671;SDS011;9983;51.114;13.788;2024-01-15T18:14:32;6.28;;;3.53;;
19671;SDS011;9983;51.114;13.788;2024-01-15T18:19:33;5.47;;;4.25;;
19671;SDS011;9983;51.114;13.788;2024-01-15T18:24:34;4.10;;;2.58;;
19671;SDS011;9983;51.114;13.788;2024-01-15T18:29:35;6.43;;;3.90;;
19671;SDS011;9983;51.114;13.788;2024-01-15T18:34:35;5.20;;;3.50;;
19671;SDS011;9983;51.114;13.788;2024-01-15T18:39:36;7.28;;;3.53;;
19671;SDS011;9983;51.114;13.788;2024-01-15T18:44:36;7.50;;;4.50;;
19671;SDS011;9983;51.114;13.788;2024-01-15T18:49:36;5.28;;;3.15;;
19671;SDS011;9983;51.114;13.788;2024-01-15T18:54:37;8.07;;;4.38;;
19671;SDS011;9983;51.114;13.788;2024-01-15T18:59:38;7.88;;;5.00;;
19671;SDS011;9983;51.114;13.788;2024-01-15T19:04:44;7.15;;;5.00;;
19671;SDS011;9983;51.114;13.788;2024-01-15T19:09:45;9.75;;;5.18;;
19671;SDS011;9983;51.114;13.788;2024-01-15T19:14:46;8.73;;;5.45;;
19671;SDS011;9983;51.114;13.788;2024-01-15T19:19:46;9.75;;;5.85;;
19671;SDS011;9983;51.114;13.788;2024-01-15T19:24:50;9.00;;;5.93;;
19671;SDS011;9983;51.114;13.788;2024-01-15T19:29:51;10.75;;;6.60;;
19671;SDS011;9983;51.114;13.788;2024-01-15T19:34:51;7.38;;;5.35;;
19671;SDS011;9983;51.114;13.788;2024-01-15T19:39:51;8.25;;;5.85;;
19671;SDS011;9983;51.114;13.788;2024-01-15T19:44:51;9.32;;;6.10;;
19671;SDS011;9983;51.114;13.788;2024-01-15T19:49:52;9.80;;;6.30;;
19671;SDS011;9983;51.114;13.788;2024-01-15T19:54:52;7.70;;;5.95;;
19671;SDS011;9983;51.114;13.788;2024-01-15T19:59:53;6.30;;;4.07;;
19671;SDS011;9983;51.114;13.788;2024-01-15T20:04:53;10.20;;;5.43;;
19671;SDS011;9983;51.114;13.788;2024-01-15T20:09:53;9.52;;;6.07;;
19671;SDS011;9983;51.114;13.788;2024-01-15T20:14:54;6.38;;;3.88;;
19671;SDS011;9983;51.114;13.788;2024-01-15T20:19:54;8.30;;;5.30;;
19671;SDS011;9983;51.114;13.788;2024-01-15T20:24:54;8.48;;;4.13;;
19671;SDS011;9983;51.114;13.788;2024-01-15T20:29:55;8.20;;;5.22;;
19671;SDS011;9983;51.114;13.788;2024-01-15T20:34:57;9.20;;;4.95;;
19671;SDS011;9983;51.114;13.788;2024-01-15T20:39:57;5.85;;;4.00;;
19671;SDS011;9983;51.114;13.788;2024-01-15T20:44:58;3.90;;;2.60;;
19671;SDS011;9983;51.114;13.788;2024-01-15T20:49:58;6.32;;;3.53;;
19671;SDS011;9983;51.114;13.788;2024-01-15T20:54:58;5.75;;;4.50;;
19671;SDS011;9983;51.114;13.788;2024-01-15T20:59:58;6.18;;;3.78;;
19671;SDS011;9983;51.114;13.788;2024-01-15T21:04:59;4.47;;;3.47;;
19671;SDS011;9983;51.114;13.788;2024-01-15T21:09:59;2.83;;;2.20;;
19671;SDS011;9983;51.114;13.788;2024-01-15T21:14:59;4.25;;;3.20;;
19671;SDS011;9983;51.114;13.788;2024-01-15T21:19:59;5.40;;;3.60;;
19671;SDS011;9983;51.114;13.788;2024-01-15T21:25:00;4.03;;;3.10;;
19671;SDS011;9983;51.114;13.788;2024-01-15T21:30:01;3.58;;;3.08;;
19671;SDS011;9983;51.114;13.788;2024-01-15T21:35:01;4.00;;;3.25;;
19671;SDS011;9983;51.114;13.788;2024-01-15T21:40:02;5.28;;;3.10;;
19671;SDS011;9983;51.114;13.788;2024-01-15T21:45:03;1.60;;;1.50;;
19671;SDS011;9983;51.114;13.788;2024-01-15T21:50:05;4.30;;;2.88;;
19671;SDS011;9983;51.114;13.788;2024-01-15T21:55:08;4.78;;;1.92;;
19671;SDS011;9983;51.114;13.788;2024-01-15T22:00:09;3.67;;;3.20;;
19671;SDS011;9983;51.114;13.788;2024-01-15T22:05:12;3.58;;;2.88;;
19671;SDS011;9983;51.114;13.788;2024-01-15T22:10:12;5.93;;;3.85;;
19671;SDS011;9983;51.114;13.788;2024-01-15T22:15:13;4.93;;;4.13;;
19671;SDS011;9983;51.114;13.788;2024-01-15T22:20:14;4.43;;;3.13;;
19671;SDS011;9983;51.114;13.788;2024-01-15T22:25:14;6.00;;;2.58;;
19671;SDS011;9983;51.114;13.788;2024-01-15T22:30:14;2.15;;;2.03;;
19671;SDS011;9983;51.114;13.788;2024-01-15T22:35:14;2.15;;;1.95;;
19671;SDS011;9983;51.114;13.788;2024-01-15T22:40:15;2.00;;;1.77;;
19671;SDS011;9983;51.114;13.788;2024-01-15T22:45:16;2.33;;;2.10;;
19671;SDS011;9983;51.114;13.788;2024-01-15T22:50:16;0.75;;;0.75;;
19671;SDS011;9983;51.114;13.788;2024-01-15T22:55:16;1.50;;;1.40;;
19671;SDS011;9983;51.114;13.788;2024-01-15T23:00:17;1.80;;;1.33;;
19671;SDS011;9983;51.114;13.788;2024-01-15T23:05:20;1.20;;;1.20;;
19671;SDS011;9983;51.114;13.788;2024-01-15T23:10:21;1.75;;;1.65;;
19671;SDS011;9983;51.114;13.788;2024-01-15T23:15:21;2.90;;;2.63;;
19671;SDS011;9983;51.114;13.788;2024-01-15T23:20:23;3.40;;;2.47;;
19671;SDS011;9983;51.114;13.788;2024-01-15T23:25:23;1.95;;;1.73;;
19671;SDS011;9983;51.114;13.788;2024-01-15T23:30:23;4.18;;;2.03;;
19671;SDS011;9983;51.114;13.788;2024-01-15T23:35:24;4.53;;;1.83;;
19671;SDS011;9983;51.114;13.788;2024-01-15T23:40:24;4.15;;;2.03;;
19671;SDS011;9983;51.114;13.788;2024-01-15T23:45:24;2.10;;;1.67;;
19671;SDS011;9983;51.114;13.788;2024-01-15T23:50:24;1.02;;;0.85;;
19671;SDS011;9983;51.114;13.788;2024-01-15T23:55:25;5.07;;;2.20;;
